sensor_id;sensor_type;location;lat;lon;timestamp;P1;durP1;ratioP1;P2;durP2;ratioP2
33993;SDS011;20673;48.980;8.138;2023-12-07T00:01:21;35.17;;;22.43;;
33993;SDS011;20673;48.980;8.138;2023-12-07T00:03:47;46.33;;;22.80;;
33993;SDS011;20673;48.980;8.138;2023-12-07T00:06:13;30.30;;;21.40;;
33993;SDS011;20673;48.980;8.138;2023-12-07T00:08:39;35.03;;;23.13;;
33993;SDS011;20673;48.980;8.138;2023-12-07T00:11:05;32.50;;;19.63;;
33993;SDS011;20673;48.980;8.138;2023-12-07T00:13:31;30.30;;;20.00;;
33993;SDS011;20673;48.980;8.138;2023-12-07T00:15:57;28.27;;;17.70;;
33993;SDS011;20673;48.980;8.138;2023-12-07T00:18:24;30.63;;;18.63;;
33993;SDS011;20673;48.980;8.138;2023-12-07T00:20:50;32.83;;;19.03;;
33993;SDS011;20673;48.980;8.138;2023-12-07T00:23:16;31.63;;;18.87;;
33993;SDS011;20673;48.980;8.138;2023-12-07T00:25:42;30.10;;;18.57;;
33993;SDS011;20673;48.980;8.138;2023-12-07T00:28:08;33.33;;;21.27;;
33993;SDS011;20673;48.980;8.138;2023-12-07T00:30:34;30.67;;;18.50;;
33993;SDS011;20673;48.980;8.138;2023-12-07T00:33:01;33.07;;;20.33;;
33993;SDS011;20673;48.980;8.138;2023-12-07T00:35:27;34.00;;;21.73;;
33993;SDS011;20673;48.980;8.138;2023-12-07T00:37:57;33.57;;;20.13;;
33993;SDS011;20673;48.980;8.138;2023-12-07T00:40:23;32.57;;;21.30;;
33993;SDS011;20673;48.980;8.138;2023-12-07T00:42:50;34.20;;;20.80;;
33993;SDS011;20673;48.980;8.138;2023-12-07T00:45:16;32.70;;;19.87;;
33993;SDS011;20673;48.980;8.138;2023-12-07T00:47:42;35.27;;;20.90;;
33993;SDS011;20673;48.980;8.138;2023-12-07T00:50:11;35.40;;;20.07;;
33993;SDS011;20673;48.980;8.138;2023-12-07T00:52:40;33.88;;;20.55;;
33993;SDS011;20673;48.980;8.138;2023-12-07T00:55:06;34.10;;;20.87;;
33993;SDS011;20673;48.980;8.138;2023-12-07T00:57:33;35.73;;;20.53;;
33993;SDS011;20673;48.980;8.138;2023-12-07T00:59:59;36.53;;;21.00;;
33993;SDS011;20673;48.980;8.138;2023-12-07T01:02:25;31.03;;;21.77;;
33993;SDS011;20673;48.980;8.138;2023-12-07T01:04:51;31.70;;;20.37;;
33993;SDS011;20673;48.980;8.138;2023-12-07T01:07:17;32.23;;;21.87;;
33993;SDS011;20673;48.980;8.138;2023-12-07T01:09:43;38.17;;;23.83;;
33993;SDS011;20673;48.980;8.138;2023-12-07T01:12:09;38.80;;;26.07;;
33993;SDS011;20673;48.980;8.138;2023-12-07T01:14:35;40.37;;;26.07;;
33993;SDS011;20673;48.980;8.138;2023-12-07T01:17:01;41.87;;;27.00;;
33993;SDS011;20673;48.980;8.138;2023-12-07T01:19:27;38.70;;;27.33;;
33993;SDS011;20673;48.980;8.138;2023-12-07T01:21:53;36.43;;;22.33;;
33993;SDS011;20673;48.980;8.138;2023-12-07T01:24:20;27.83;;;18.03;;
33993;SDS011;20673;48.980;8.138;2023-12-07T01:26:46;30.27;;;18.77;;
33993;SDS011;20673;48.980;8.138;2023-12-07T01:29:12;30.70;;;18.77;;
33993;SDS011;20673;48.980;8.138;2023-12-07T01:31:39;30.50;;;18.50;;
33993;SDS011;20673;48.980;8.138;2023-12-07T01:34:06;29.53;;;18.17;;
33993;SDS011;20673;48.980;8.138;2023-12-07T01:36:32;31.60;;;20.00;;
33993;SDS011;20673;48.980;8.138;2023-12-07T01:38:58;35.53;;;21.83;;
33993;SDS011;20673;48.980;8.138;2023-12-07T01:41:25;33.97;;;21.80;;
33993;SDS011;20673;48.980;8.138;2023-12-07T01:43:51;33.40;;;20.63;;
33993;SDS011;20673;48.980;8.138;2023-12-07T01:46:17;31.77;;;20.27;;
33993;SDS011;20673;48.980;8.138;2023-12-07T01:48:44;29.67;;;19.00;;
33993;SDS011;20673;48.980;8.138;2023-12-07T01:51:13;27.43;;;18.17;;
33993;SDS011;20673;48.980;8.138;2023-12-07T01:53:39;25.77;;;16.00;;
33993;SDS011;20673;48.980;8.138;2023-12-07T01:56:06;25.80;;;16.97;;
33993;SDS011;20673;48.980;8.138;2023-12-07T01:58:34;26.00;;;17.00;;
33993;SDS011;20673;48.980;8.138;2023-12-07T02:01:03;28.47;;;16.33;;
33993;SDS011;20673;48.980;8.138;2023-12-07T02:03:30;27.03;;;17.60;;
33993;SDS011;20673;48.980;8.138;2023-12-07T02:05:58;30.20;;;19.03;;
33993;SDS011;20673;48.980;8.138;2023-12-07T02:08:25;27.87;;;18.37;;
33993;SDS011;20673;48.980;8.138;2023-12-07T02:10:51;28.73;;;18.07;;
33993;SDS011;20673;48.980;8.138;2023-12-07T02:13:19;30.77;;;17.63;;
33993;SDS011;20673;48.980;8.138;2023-12-07T02:15:46;26.53;;;17.07;;
33993;SDS011;20673;48.980;8.138;2023-12-07T02:18:19;30.77;;;17.23;;
33993;SDS011;20673;48.980;8.138;2023-12-07T02:21:04;29.83;;;17.33;;
33993;SDS011;20673;48.980;8.138;2023-12-07T02:23:37;32.93;;;17.77;;
33993;SDS011;20673;48.980;8.138;2023-12-07T02:26:07;34.67;;;18.20;;
33993;SDS011;20673;48.980;8.138;2023-12-07T02:28:37;28.17;;;16.70;;
33993;SDS011;20673;48.980;8.138;2023-12-07T02:31:03;28.77;;;16.40;;
33993;SDS011;20673;48.980;8.138;2023-12-07T02:33:30;26.23;;;17.53;;
33993;SDS011;20673;48.980;8.138;2023-12-07T02:35:56;27.67;;;16.43;;
33993;SDS011;20673;48.980;8.138;2023-12-07T02:38:22;28.60;;;16.63;;
33993;SDS011;20673;48.980;8.138;2023-12-07T02:40:53;29.07;;;15.97;;
33993;SDS011;20673;48.980;8.138;2023-12-07T02:43:21;27.97;;;14.97;;
33993;SDS011;20673;48.980;8.138;2023-12-07T02:45:48;31.03;;;14.73;;
33993;SDS011;20673;48.980;8.138;2023-12-07T02:48:14;27.20;;;15.43;;
33993;SDS011;20673;48.980;8.138;2023-12-07T02:50:42;24.53;;;14.53;;
33993;SDS011;20673;48.980;8.138;2023-12-07T02:53:08;23.57;;;13.60;;
33993;SDS011;20673;48.980;8.138;2023-12-07T02:55:35;27.03;;;14.97;;
33993;SDS011;20673;48.980;8.138;2023-12-07T02:58:01;23.60;;;14.53;;
33993;SDS011;20673;48.980;8.138;2023-12-07T03:00:27;28.63;;;16.47;;
33993;SDS011;20673;48.980;8.138;2023-12-07T03:02:53;40.57;;;24.23;;
33993;SDS011;20673;48.980;8.138;2023-12-07T03:05:19;48.43;;;27.70;;
33993;SDS011;20673;48.980;8.138;2023-12-07T03:07:45;40.57;;;19.63;;
33993;SDS011;20673;48.980;8.138;2023-12-07T03:10:11;59.47;;;30.37;;
33993;SDS011;20673;48.980;8.138;2023-12-07T03:12:38;30.07;;;18.17;;
33993;SDS011;20673;48.980;8.138;2023-12-07T03:15:04;21.10;;;14.10;;
33993;SDS011;20673;48.980;8.138;2023-12-07T03:17:31;27.10;;;16.23;;
33993;SDS011;20673;48.980;8.138;2023-12-07T03:19:57;24.57;;;14.70;;
33993;SDS011;20673;48.980;8.138;2023-12-07T03:22:23;27.97;;;14.97;;
33993;SDS011;20673;48.980;8.138;2023-12-07T03:24:50;23.43;;;14.73;;
33993;SDS011;20673;48.980;8.138;2023-12-07T03:27:18;23.53;;;14.77;;
33993;SDS011;20673;48.980;8.138;2023-12-07T03:29:45;26.60;;;14.50;;
33993;SDS011;20673;48.980;8.138;2023-12-07T03:32:11;24.87;;;15.00;;
33993;SDS011;20673;48.980;8.138;2023-12-07T03:34:37;28.90;;;16.13;;
33993;SDS011;20673;48.980;8.138;2023-12-07T03:37:03;30.63;;;16.63;;
33993;SDS011;20673;48.980;8.138;2023-12-07T03:39:30;26.07;;;15.77;;
33993;SDS011;20673;48.980;8.138;2023-12-07T03:41:57;25.57;;;15.40;;
33993;SDS011;20673;48.980;8.138;2023-12-07T03:44:24;29.43;;;16.27;;
33993;SDS011;20673;48.980;8.138;2023-12-07T03:46:52;29.07;;;16.03;;
33993;SDS011;20673;48.980;8.138;2023-12-07T03:49:19;29.20;;;16.77;;
33993;SDS011;20673;48.980;8.138;2023-12-07T03:51:45;26.60;;;14.60;;
33993;SDS011;20673;48.980;8.138;2023-12-07T03:54:11;26.87;;;15.77;;
33993;SDS011;20673;48.980;8.138;2023-12-07T03:56:37;26.63;;;15.00;;
33993;SDS011;20673;48.980;8.138;2023-12-07T03:59:05;26.40;;;15.17;;
33993;SDS011;20673;48.980;8.138;2023-12-07T04:01:32;27.40;;;15.40;;
33993;SDS011;20673;48.980;8.138;2023-12-07T04:03:58;32.53;;;16.87;;
33993;SDS011;20673;48.980;8.138;2023-12-07T04:06:26;28.47;;;15.97;;
33993;SDS011;20673;48.980;8.138;2023-12-07T04:08:52;28.57;;;15.90;;
33993;SDS011;20673;48.980;8.138;2023-12-07T04:11:19;26.63;;;16.03;;
33993;SDS011;20673;48.980;8.138;2023-12-07T04:13:46;26.80;;;15.07;;
33993;SDS011;20673;48.980;8.138;2023-12-07T04:16:12;29.03;;;16.27;;
33993;SDS011;20673;48.980;8.138;2023-12-07T04:18:39;31.03;;;16.10;;
33993;SDS011;20673;48.980;8.138;2023-12-07T04:21:05;29.43;;;16.53;;
33993;SDS011;20673;48.980;8.138;2023-12-07T04:23:31;24.37;;;15.03;;
33993;SDS011;20673;48.980;8.138;2023-12-07T04:25:58;29.90;;;15.83;;
33993;SDS011;20673;48.980;8.138;2023-12-07T04:28:24;27.80;;;16.30;;
33993;SDS011;20673;48.980;8.138;2023-12-07T04:30:51;25.67;;;15.67;;
33993;SDS011;20673;48.980;8.138;2023-12-07T04:33:17;27.33;;;15.87;;
33993;SDS011;20673;48.980;8.138;2023-12-07T04:35:44;25.23;;;14.83;;
33993;SDS011;20673;48.980;8.138;2023-12-07T04:38:10;26.83;;;15.23;;
33993;SDS011;20673;48.980;8.138;2023-12-07T04:40:36;26.90;;;15.87;;
33993;SDS011;20673;48.980;8.138;2023-12-07T04:43:03;24.60;;;15.10;;
33993;SDS011;20673;48.980;8.138;2023-12-07T04:45:29;26.53;;;13.97;;
33993;SDS011;20673;48.980;8.138;2023-12-07T04:47:55;24.40;;;14.53;;
33993;SDS011;20673;48.980;8.138;2023-12-07T04:50:23;24.77;;;13.27;;
33993;SDS011;20673;48.980;8.138;2023-12-07T04:52:49;28.10;;;14.77;;
33993;SDS011;20673;48.980;8.138;2023-12-07T04:55:15;25.00;;;14.73;;
33993;SDS011;20673;48.980;8.138;2023-12-07T04:57:41;26.17;;;15.10;;
33993;SDS011;20673;48.980;8.138;2023-12-07T05:00:07;27.47;;;15.53;;
33993;SDS011;20673;48.980;8.138;2023-12-07T05:02:35;30.37;;;14.77;;
33993;SDS011;20673;48.980;8.138;2023-12-07T05:05:03;26.80;;;15.13;;
33993;SDS011;20673;48.980;8.138;2023-12-07T05:07:30;24.37;;;15.30;;
33993;SDS011;20673;48.980;8.138;2023-12-07T05:09:56;34.77;;;18.73;;
33993;SDS011;20673;48.980;8.138;2023-12-07T05:12:22;27.10;;;16.97;;
33993;SDS011;20673;48.980;8.138;2023-12-07T05:14:49;33.20;;;16.60;;
33993;SDS011;20673;48.980;8.138;2023-12-07T05:17:15;30.33;;;16.80;;
33993;SDS011;20673;48.980;8.138;2023-12-07T05:19:43;28.47;;;17.03;;
33993;SDS011;20673;48.980;8.138;2023-12-07T05:22:10;38.13;;;19.53;;
33993;SDS011;20673;48.980;8.138;2023-12-07T05:24:36;34.73;;;20.30;;
33993;SDS011;20673;48.980;8.138;2023-12-07T05:27:03;36.60;;;19.20;;
33993;SDS011;20673;48.980;8.138;2023-12-07T05:29:29;31.60;;;17.50;;
33993;SDS011;20673;48.980;8.138;2023-12-07T05:31:55;39.17;;;19.17;;
33993;SDS011;20673;48.980;8.138;2023-12-07T05:34:21;30.47;;;17.80;;
33993;SDS011;20673;48.980;8.138;2023-12-07T05:36:48;33.63;;;18.63;;
33993;SDS011;20673;48.980;8.138;2023-12-07T05:39:14;34.47;;;19.33;;
33993;SDS011;20673;48.980;8.138;2023-12-07T05:41:40;37.80;;;19.63;;
33993;SDS011;20673;48.980;8.138;2023-12-07T05:44:06;31.77;;;18.83;;
33993;SDS011;20673;48.980;8.138;2023-12-07T05:46:33;33.80;;;18.47;;
33993;SDS011;20673;48.980;8.138;2023-12-07T05:49:05;34.93;;;19.80;;
33993;SDS011;20673;48.980;8.138;2023-12-07T05:51:31;35.70;;;19.70;;
33993;SDS011;20673;48.980;8.138;2023-12-07T05:53:57;37.73;;;18.60;;
33993;SDS011;20673;48.980;8.138;2023-12-07T05:56:23;33.53;;;18.90;;
33993;SDS011;20673;48.980;8.138;2023-12-07T05:58:49;33.50;;;19.50;;
33993;SDS011;20673;48.980;8.138;2023-12-07T06:01:16;33.93;;;19.23;;
33993;SDS011;20673;48.980;8.138;2023-12-07T06:03:44;33.10;;;19.50;;
33993;SDS011;20673;48.980;8.138;2023-12-07T06:06:10;35.33;;;18.57;;
33993;SDS011;20673;48.980;8.138;2023-12-07T06:08:37;44.90;;;20.53;;
33993;SDS011;20673;48.980;8.138;2023-12-07T06:11:03;31.23;;;16.30;;
33993;SDS011;20673;48.980;8.138;2023-12-07T06:13:30;30.50;;;16.67;;
33993;SDS011;20673;48.980;8.138;2023-12-07T06:15:57;32.37;;;17.17;;
33993;SDS011;20673;48.980;8.138;2023-12-07T06:18:23;32.07;;;18.30;;
33993;SDS011;20673;48.980;8.138;2023-12-07T06:20:50;31.33;;;17.97;;
33993;SDS011;20673;48.980;8.138;2023-12-07T06:23:16;32.40;;;17.40;;
33993;SDS011;20673;48.980;8.138;2023-12-07T06:25:42;30.80;;;18.47;;
33993;SDS011;20673;48.980;8.138;2023-12-07T06:28:08;28.27;;;17.20;;
33993;SDS011;20673;48.980;8.138;2023-12-07T06:30:35;31.43;;;15.97;;
33993;SDS011;20673;48.980;8.138;2023-12-07T06:33:01;29.63;;;15.77;;
33993;SDS011;20673;48.980;8.138;2023-12-07T06:35:27;29.47;;;14.53;;
33993;SDS011;20673;48.980;8.138;2023-12-07T06:37:54;29.07;;;16.17;;
33993;SDS011;20673;48.980;8.138;2023-12-07T06:40:20;35.10;;;20.00;;
33993;SDS011;20673;48.980;8.138;2023-12-07T06:42:46;32.63;;;18.57;;
33993;SDS011;20673;48.980;8.138;2023-12-07T06:45:13;36.47;;;20.50;;
33993;SDS011;20673;48.980;8.138;2023-12-07T06:47:40;38.53;;;21.73;;
33993;SDS011;20673;48.980;8.138;2023-12-07T06:50:09;33.80;;;18.30;;
33993;SDS011;20673;48.980;8.138;2023-12-07T06:52:36;34.80;;;17.47;;
33993;SDS011;20673;48.980;8.138;2023-12-07T06:55:03;34.90;;;18.67;;
33993;SDS011;20673;48.980;8.138;2023-12-07T06:57:31;38.17;;;19.57;;
33993;SDS011;20673;48.980;8.138;2023-12-07T06:59:58;37.30;;;20.20;;
33993;SDS011;20673;48.980;8.138;2023-12-07T07:02:25;40.80;;;22.83;;
33993;SDS011;20673;48.980;8.138;2023-12-07T07:04:51;38.30;;;19.63;;
33993;SDS011;20673;48.980;8.138;2023-12-07T07:07:17;56.37;;;24.17;;
33993;SDS011;20673;48.980;8.138;2023-12-07T07:09:43;49.63;;;23.53;;
33993;SDS011;20673;48.980;8.138;2023-12-07T07:12:11;41.97;;;22.07;;
33993;SDS011;20673;48.980;8.138;2023-12-07T07:14:37;51.17;;;22.77;;
33993;SDS011;20673;48.980;8.138;2023-12-07T07:17:04;53.23;;;22.80;;
33993;SDS011;20673;48.980;8.138;2023-12-07T07:19:30;43.40;;;20.63;;
33993;SDS011;20673;48.980;8.138;2023-12-07T07:21:56;50.17;;;21.33;;
33993;SDS011;20673;48.980;8.138;2023-12-07T07:24:23;92.57;;;22.00;;
33993;SDS011;20673;48.980;8.138;2023-12-07T07:26:49;43.17;;;19.83;;
33993;SDS011;20673;48.980;8.138;2023-12-07T07:29:15;43.63;;;20.20;;
33993;SDS011;20673;48.980;8.138;2023-12-07T07:31:41;34.93;;;15.67;;
33993;SDS011;20673;48.980;8.138;2023-12-07T07:34:07;35.57;;;16.60;;
33993;SDS011;20673;48.980;8.138;2023-12-07T07:36:33;33.63;;;16.27;;
33993;SDS011;20673;48.980;8.138;2023-12-07T07:38:59;63.60;;;16.70;;
33993;SDS011;20673;48.980;8.138;2023-12-07T07:41:26;42.67;;;15.60;;
33993;SDS011;20673;48.980;8.138;2023-12-07T07:43:52;45.83;;;15.57;;
33993;SDS011;20673;48.980;8.138;2023-12-07T07:46:18;31.77;;;14.53;;
33993;SDS011;20673;48.980;8.138;2023-12-07T07:48:44;29.97;;;14.20;;
33993;SDS011;20673;48.980;8.138;2023-12-07T07:51:10;26.70;;;13.47;;
33993;SDS011;20673;48.980;8.138;2023-12-07T07:53:36;38.47;;;14.10;;
33993;SDS011;20673;48.980;8.138;2023-12-07T07:56:02;41.67;;;14.17;;
33993;SDS011;20673;48.980;8.138;2023-12-07T07:58:29;38.43;;;16.33;;
33993;SDS011;20673;48.980;8.138;2023-12-07T08:00:56;82.37;;;16.63;;
33993;SDS011;20673;48.980;8.138;2023-12-07T08:03:22;55.83;;;15.20;;
33993;SDS011;20673;48.980;8.138;2023-12-07T08:05:48;42.40;;;13.80;;
33993;SDS011;20673;48.980;8.138;2023-12-07T08:08:14;30.07;;;13.30;;
33993;SDS011;20673;48.980;8.138;2023-12-07T08:10:41;53.13;;;15.27;;
33993;SDS011;20673;48.980;8.138;2023-12-07T08:13:07;64.80;;;14.23;;
33993;SDS011;20673;48.980;8.138;2023-12-07T08:15:33;75.03;;;14.27;;
33993;SDS011;20673;48.980;8.138;2023-12-07T08:18:00;67.53;;;15.03;;
33993;SDS011;20673;48.980;8.138;2023-12-07T08:20:27;43.93;;;14.13;;
33993;SDS011;20673;48.980;8.138;2023-12-07T08:22:53;42.90;;;14.63;;
33993;SDS011;20673;48.980;8.138;2023-12-07T08:25:19;37.10;;;14.87;;
33993;SDS011;20673;48.980;8.138;2023-12-07T08:27:46;27.37;;;14.37;;
33993;SDS011;20673;48.980;8.138;2023-12-07T08:30:13;32.93;;;16.43;;
33993;SDS011;20673;48.980;8.138;2023-12-07T08:32:39;55.17;;;16.27;;
33993;SDS011;20673;48.980;8.138;2023-12-07T08:35:05;41.97;;;16.97;;
33993;SDS011;20673;48.980;8.138;2023-12-07T08:37:32;50.97;;;18.10;;
33993;SDS011;20673;48.980;8.138;2023-12-07T08:39:59;40.00;;;18.77;;
33993;SDS011;20673;48.980;8.138;2023-12-07T08:42:25;59.43;;;18.67;;
33993;SDS011;20673;48.980;8.138;2023-12-07T08:44:56;56.47;;;17.30;;
33993;SDS011;20673;48.980;8.138;2023-12-07T08:47:22;69.13;;;18.17;;
33993;SDS011;20673;48.980;8.138;2023-12-07T08:49:48;68.33;;;17.77;;
33993;SDS011;20673;48.980;8.138;2023-12-07T08:52:16;31.67;;;15.20;;
33993;SDS011;20673;48.980;8.138;2023-12-07T08:54:43;43.40;;;16.97;;
33993;SDS011;20673;48.980;8.138;2023-12-07T08:57:10;46.73;;;16.90;;
33993;SDS011;20673;48.980;8.138;2023-12-07T08:59:36;61.10;;;17.37;;
33993;SDS011;20673;48.980;8.138;2023-12-07T09:02:02;28.93;;;14.90;;
33993;SDS011;20673;48.980;8.138;2023-12-07T09:04:28;43.70;;;17.63;;
33993;SDS011;20673;48.980;8.138;2023-12-07T09:06:54;37.80;;;16.27;;
33993;SDS011;20673;48.980;8.138;2023-12-07T09:09:21;38.13;;;18.10;;
33993;SDS011;20673;48.980;8.138;2023-12-07T09:11:48;59.50;;;18.73;;
33993;SDS011;20673;48.980;8.138;2023-12-07T09:14:14;46.50;;;16.57;;
33993;SDS011;20673;48.980;8.138;2023-12-07T09:16:45;38.57;;;16.00;;
33993;SDS011;20673;48.980;8.138;2023-12-07T09:19:12;38.90;;;15.63;;
33993;SDS011;20673;48.980;8.138;2023-12-07T09:21:39;42.70;;;15.40;;
33993;SDS011;20673;48.980;8.138;2023-12-07T09:24:06;71.70;;;17.03;;
33993;SDS011;20673;48.980;8.138;2023-12-07T09:26:33;59.40;;;17.97;;
33993;SDS011;20673;48.980;8.138;2023-12-07T09:28:59;67.93;;;16.23;;
33993;SDS011;20673;48.980;8.138;2023-12-07T09:31:26;30.93;;;16.33;;
33993;SDS011;20673;48.980;8.138;2023-12-07T09:33:53;53.13;;;15.47;;
33993;SDS011;20673;48.980;8.138;2023-12-07T09:36:19;95.17;;;16.73;;
33993;SDS011;20673;48.980;8.138;2023-12-07T09:38:49;49.63;;;14.40;;
33993;SDS011;20673;48.980;8.138;2023-12-07T09:41:15;52.97;;;15.53;;
33993;SDS011;20673;48.980;8.138;2023-12-07T09:43:42;47.27;;;16.00;;
33993;SDS011;20673;48.980;8.138;2023-12-07T09:46:08;27.77;;;13.77;;
33993;SDS011;20673;48.980;8.138;2023-12-07T09:48:35;28.90;;;14.13;;
33993;SDS011;20673;48.980;8.138;2023-12-07T09:51:06;41.50;;;13.55;;
33993;SDS011;20673;48.980;8.138;2023-12-07T09:53:33;82.10;;;15.30;;
33993;SDS011;20673;48.980;8.138;2023-12-07T09:56:00;44.27;;;13.37;;
33993;SDS011;20673;48.980;8.138;2023-12-07T09:58:26;28.07;;;14.97;;
33993;SDS011;20673;48.980;8.138;2023-12-07T10:00:52;50.80;;;14.07;;
33993;SDS011;20673;48.980;8.138;2023-12-07T10:03:21;42.50;;;15.30;;
33993;SDS011;20673;48.980;8.138;2023-12-07T10:08:32;32.83;;;11.90;;
33993;SDS011;20673;48.980;8.138;2023-12-07T10:11:04;41.63;;;13.37;;
33993;SDS011;20673;48.980;8.138;2023-12-07T10:13:35;50.53;;;12.67;;
33993;SDS011;20673;48.980;8.138;2023-12-07T10:16:06;24.43;;;12.80;;
33993;SDS011;20673;48.980;8.138;2023-12-07T10:18:38;51.83;;;13.10;;
33993;SDS011;20673;48.980;8.138;2023-12-07T10:21:06;22.77;;;12.00;;
33993;SDS011;20673;48.980;8.138;2023-12-07T10:23:40;21.93;;;11.73;;
33993;SDS011;20673;48.980;8.138;2023-12-07T10:26:05;30.77;;;12.17;;
33993;SDS011;20673;48.980;8.138;2023-12-07T10:28:33;29.30;;;13.90;;
33993;SDS011;20673;48.980;8.138;2023-12-07T10:31:04;44.40;;;13.55;;
33993;SDS011;20673;48.980;8.138;2023-12-07T10:33:35;41.17;;;13.43;;
33993;SDS011;20673;48.980;8.138;2023-12-07T10:36:02;19.93;;;10.87;;
33993;SDS011;20673;48.980;8.138;2023-12-07T10:38:30;21.30;;;12.03;;
33993;SDS011;20673;48.980;8.138;2023-12-07T10:41:06;25.37;;;12.47;;
33993;SDS011;20673;48.980;8.138;2023-12-07T10:43:36;23.53;;;10.00;;
33993;SDS011;20673;48.980;8.138;2023-12-07T10:46:06;29.67;;;10.43;;
33993;SDS011;20673;48.980;8.138;2023-12-07T10:48:35;24.70;;;11.13;;
33993;SDS011;20673;48.980;8.138;2023-12-07T10:51:02;21.07;;;10.43;;
33993;SDS011;20673;48.980;8.138;2023-12-07T10:53:40;32.57;;;11.37;;
33993;SDS011;20673;48.980;8.138;2023-12-07T10:56:13;33.17;;;13.60;;
33993;SDS011;20673;48.980;8.138;2023-12-07T10:58:52;19.23;;;10.77;;
33993;SDS011;20673;48.980;8.138;2023-12-07T11:01:21;26.73;;;11.63;;
33993;SDS011;20673;48.980;8.138;2023-12-07T11:03:51;29.33;;;13.00;;
33993;SDS011;20673;48.980;8.138;2023-12-07T11:06:19;26.57;;;12.50;;
33993;SDS011;20673;48.980;8.138;2023-12-07T11:08:54;31.73;;;12.53;;
33993;SDS011;20673;48.980;8.138;2023-12-07T11:16:47;40.90;;;13.40;;
33993;SDS011;20673;48.980;8.138;2023-12-07T11:22:11;34.23;;;14.53;;
33993;SDS011;20673;48.980;8.138;2023-12-07T11:24:52;30.80;;;14.93;;
33993;SDS011;20673;48.980;8.138;2023-12-07T11:27:24;34.67;;;15.80;;
33993;SDS011;20673;48.980;8.138;2023-12-07T11:29:52;30.00;;;14.93;;
33993;SDS011;20673;48.980;8.138;2023-12-07T11:32:19;32.83;;;15.20;;
33993;SDS011;20673;48.980;8.138;2023-12-07T11:34:46;30.33;;;16.30;;
33993;SDS011;20673;48.980;8.138;2023-12-07T11:37:14;34.80;;;16.60;;
33993;SDS011;20673;48.980;8.138;2023-12-07T11:39:45;31.20;;;16.67;;
33993;SDS011;20673;48.980;8.138;2023-12-07T11:42:12;32.60;;;17.30;;
33993;SDS011;20673;48.980;8.138;2023-12-07T11:44:47;33.27;;;18.37;;
33993;SDS011;20673;48.980;8.138;2023-12-07T11:47:18;35.03;;;18.43;;
33993;SDS011;20673;48.980;8.138;2023-12-07T11:49:46;31.40;;;17.40;;
33993;SDS011;20673;48.980;8.138;2023-12-07T11:54:48;28.97;;;16.57;;
33993;SDS011;20673;48.980;8.138;2023-12-07T11:57:16;30.90;;;18.02;;
33993;SDS011;20673;48.980;8.138;2023-12-07T11:59:46;35.57;;;16.87;;
33993;SDS011;20673;48.980;8.138;2023-12-07T12:02:13;30.37;;;15.40;;
33993;SDS011;20673;48.980;8.138;2023-12-07T12:04:40;24.07;;;14.03;;
33993;SDS011;20673;48.980;8.138;2023-12-07T12:07:06;23.83;;;13.90;;
33993;SDS011;20673;48.980;8.138;2023-12-07T12:09:33;25.63;;;14.70;;
33993;SDS011;20673;48.980;8.138;2023-12-07T12:12:00;23.50;;;13.37;;
33993;SDS011;20673;48.980;8.138;2023-12-07T12:14:26;25.90;;;15.33;;
33993;SDS011;20673;48.980;8.138;2023-12-07T12:16:55;22.80;;;14.43;;
33993;SDS011;20673;48.980;8.138;2023-12-07T12:19:22;29.03;;;15.30;;
33993;SDS011;20673;48.980;8.138;2023-12-07T12:21:49;27.37;;;15.90;;
33993;SDS011;20673;48.980;8.138;2023-12-07T12:24:16;26.13;;;14.87;;
33993;SDS011;20673;48.980;8.138;2023-12-07T12:26:42;26.77;;;16.47;;
33993;SDS011;20673;48.980;8.138;2023-12-07T12:29:09;25.77;;;13.80;;
33993;SDS011;20673;48.980;8.138;2023-12-07T12:31:37;25.57;;;15.00;;
33993;SDS011;20673;48.980;8.138;2023-12-07T12:34:06;26.00;;;14.63;;
33993;SDS011;20673;48.980;8.138;2023-12-07T12:36:37;23.93;;;13.13;;
33993;SDS011;20673;48.980;8.138;2023-12-07T12:39:04;23.13;;;13.87;;
33993;SDS011;20673;48.980;8.138;2023-12-07T12:41:33;20.10;;;12.63;;
33993;SDS011;20673;48.980;8.138;2023-12-07T12:44:00;24.97;;;14.20;;
33993;SDS011;20673;48.980;8.138;2023-12-07T12:46:26;22.63;;;13.90;;
33993;SDS011;20673;48.980;8.138;2023-12-07T12:51:29;27.00;;;14.70;;
33993;SDS011;20673;48.980;8.138;2023-12-07T12:53:59;31.30;;;16.73;;
33993;SDS011;20673;48.980;8.138;2023-12-07T12:56:27;29.97;;;16.47;;
33993;SDS011;20673;48.980;8.138;2023-12-07T12:58:54;29.70;;;15.40;;
33993;SDS011;20673;48.980;8.138;2023-12-07T13:01:21;32.67;;;17.83;;
33993;SDS011;20673;48.980;8.138;2023-12-07T13:03:48;32.60;;;16.33;;
33993;SDS011;20673;48.980;8.138;2023-12-07T13:06:15;33.27;;;16.90;;
33993;SDS011;20673;48.980;8.138;2023-12-07T13:08:46;28.90;;;15.50;;
33993;SDS011;20673;48.980;8.138;2023-12-07T13:11:16;36.17;;;18.43;;
33993;SDS011;20673;48.980;8.138;2023-12-07T13:13:45;33.97;;;17.80;;
33993;SDS011;20673;48.980;8.138;2023-12-07T13:16:13;34.07;;;17.93;;
33993;SDS011;20673;48.980;8.138;2023-12-07T13:18:40;41.87;;;20.53;;
33993;SDS011;20673;48.980;8.138;2023-12-07T13:21:06;41.83;;;19.70;;
33993;SDS011;20673;48.980;8.138;2023-12-07T13:23:34;42.60;;;21.07;;
33993;SDS011;20673;48.980;8.138;2023-12-07T13:26:01;43.67;;;21.53;;
33993;SDS011;20673;48.980;8.138;2023-12-07T13:28:27;43.50;;;22.23;;
33993;SDS011;20673;48.980;8.138;2023-12-07T13:30:53;40.80;;;20.73;;
33993;SDS011;20673;48.980;8.138;2023-12-07T13:33:19;50.00;;;24.37;;
33993;SDS011;20673;48.980;8.138;2023-12-07T13:35:45;43.93;;;24.07;;
33993;SDS011;20673;48.980;8.138;2023-12-07T13:38:12;48.73;;;22.20;;
33993;SDS011;20673;48.980;8.138;2023-12-07T13:40:38;46.70;;;23.07;;
33993;SDS011;20673;48.980;8.138;2023-12-07T13:43:04;48.57;;;24.10;;
33993;SDS011;20673;48.980;8.138;2023-12-07T13:45:32;51.20;;;24.40;;
33993;SDS011;20673;48.980;8.138;2023-12-07T13:47:58;45.80;;;24.27;;
33993;SDS011;20673;48.980;8.138;2023-12-07T13:50:24;42.67;;;22.50;;
33993;SDS011;20673;48.980;8.138;2023-12-07T13:52:50;49.07;;;24.97;;
33993;SDS011;20673;48.980;8.138;2023-12-07T13:55:17;43.07;;;22.73;;
33993;SDS011;20673;48.980;8.138;2023-12-07T13:57:43;49.27;;;24.40;;
33993;SDS011;20673;48.980;8.138;2023-12-07T14:00:10;48.63;;;23.27;;
33993;SDS011;20673;48.980;8.138;2023-12-07T14:02:38;52.87;;;25.33;;
33993;SDS011;20673;48.980;8.138;2023-12-07T14:05:05;50.07;;;25.00;;
33993;SDS011;20673;48.980;8.138;2023-12-07T14:07:32;48.77;;;23.60;;
33993;SDS011;20673;48.980;8.138;2023-12-07T14:09:58;48.23;;;23.77;;
33993;SDS011;20673;48.980;8.138;2023-12-07T14:12:24;43.37;;;23.73;;
33993;SDS011;20673;48.980;8.138;2023-12-07T14:14:52;49.57;;;23.77;;
33993;SDS011;20673;48.980;8.138;2023-12-07T14:17:20;52.43;;;25.50;;
33993;SDS011;20673;48.980;8.138;2023-12-07T14:19:47;56.40;;;25.40;;
33993;SDS011;20673;48.980;8.138;2023-12-07T14:22:16;51.93;;;25.67;;
33993;SDS011;20673;48.980;8.138;2023-12-07T14:24:42;52.30;;;25.67;;
33993;SDS011;20673;48.980;8.138;2023-12-07T14:27:08;48.23;;;23.90;;
33993;SDS011;20673;48.980;8.138;2023-12-07T14:29:34;46.57;;;23.37;;
33993;SDS011;20673;48.980;8.138;2023-12-07T14:32:00;51.77;;;24.20;;
33993;SDS011;20673;48.980;8.138;2023-12-07T14:34:27;47.33;;;24.00;;
33993;SDS011;20673;48.980;8.138;2023-12-07T14:36:53;50.10;;;23.83;;